createdAt,value
2023-03-14T00:00:26.153Z,8.946
2023-03-14T00:01:25.754Z,8.965
2023-03-14T00:02:26.655Z,8.967
2023-03-14T00:03:26.501Z,8.962
2023-03-14T00:04:26.125Z,8.919
2023-03-14T00:05:25.738Z,8.914
2023-03-14T00:06:26.326Z,8.887
2023-03-14T00:07:25.824Z,8.901
2023-03-14T00:08:26.402Z,8.874
2023-03-14T00:09:25.925Z,8.903
2023-03-14T00:10:26.462Z,8.911
2023-03-14T00:11:25.977Z,8.917
2023-03-14T00:12:26.556Z,8.965
2023-03-14T00:13:26.095Z,8.946
2023-03-14T00:14:25.596Z,8.885
2023-03-14T00:15:26.288Z,8.871
2023-03-14T00:16:25.951Z,8.863
2023-03-14T00:17:25.608Z,8.855
2023-03-14T00:18:26.207Z,8.871
2023-03-14T00:19:25.672Z,8.898
2023-03-14T00:20:26.166Z,8.871
2023-03-14T00:21:25.752Z,8.938
2023-03-14T00:22:26.269Z,8.951
2023-03-14T00:23:25.812Z,8.919
2023-03-14T00:24:26.433Z,8.909
2023-03-14T00:25:25.979Z,8.919
2023-03-14T00:26:26.486Z,8.914
2023-03-14T00:27:26.058Z,8.901
2023-03-14T00:28:26.902Z,8.847
2023-03-14T00:29:26.493Z,8.861
2023-03-14T00:30:26.013Z,8.895
2023-03-14T00:31:26.575Z,8.954
2023-03-14T00:32:26.567Z,8.954
2023-03-14T00:33:26.217Z,8.951
2023-03-14T00:34:26.411Z,8.933
2023-03-14T00:35:26.061Z,8.962
2023-03-14T00:36:25.677Z,8.938
2023-03-14T00:37:26.274Z,8.930
2023-03-14T00:38:25.855Z,8.962
2023-03-14T00:39:26.536Z,8.935
2023-03-14T00:40:26.048Z,8.978
2023-03-14T00:41:25.627Z,8.997
2023-03-14T00:42:26.224Z,8.962
2023-03-14T00:43:25.988Z,8.946
2023-03-14T00:44:26.606Z,8.925
2023-03-14T00:45:26.089Z,8.914
2023-03-14T00:46:25.853Z,8.925
2023-03-14T00:47:25.742Z,8.874
2023-03-14T00:48:26.304Z,8.874
2023-03-14T00:49:25.924Z,8.887
2023-03-14T00:50:26.632Z,8.927
2023-03-14T00:51:26.126Z,8.927
2023-03-14T00:52:25.578Z,8.943
2023-03-14T00:53:26.108Z,8.898
2023-03-14T00:54:25.637Z,8.927
2023-03-14T00:55:26.169Z,8.882
2023-03-14T00:56:25.796Z,8.954
2023-03-14T00:57:26.373Z,8.925
2023-03-14T00:58:25.889Z,8.941
2023-03-14T00:59:25.692Z,8.935
2023-03-14T01:00:26.353Z,8.935
2023-03-14T01:01:25.990Z,8.954
2023-03-14T01:02:25.895Z,8.925
2023-03-14T01:03:25.973Z,8.978
2023-03-14T01:04:26.542Z,9.015
2023-03-14T01:05:26.225Z,8.994
2023-03-14T01:06:25.834Z,8.989
2023-03-14T01:07:26.317Z,8.991
2023-03-14T01:08:25.877Z,9.007
2023-03-14T01:09:26.408Z,8.967
2023-03-14T01:10:25.927Z,8.917
2023-03-14T01:11:26.509Z,8.943
2023-03-14T01:12:26.036Z,9.023
2023-03-14T01:13:25.582Z,9.042
2023-03-14T01:14:26.152Z,9.114
2023-03-14T01:15:25.784Z,9.085
2023-03-14T01:16:26.589Z,9.088
2023-03-14T01:17:26.157Z,9.112
2023-03-14T01:18:26.060Z,9.074
2023-03-14T01:19:26.620Z,9.106
2023-03-14T01:20:26.329Z,9.122
2023-03-14T01:21:25.852Z,9.130
2023-03-14T01:22:26.503Z,9.112
2023-03-14T01:23:26.041Z,9.160
2023-03-14T01:24:25.745Z,9.117
2023-03-14T01:25:26.285Z,9.128
2023-03-14T01:26:25.845Z,9.128
2023-03-14T01:27:26.396Z,9.104
2023-03-14T01:28:25.925Z,9.120
2023-03-14T01:29:26.510Z,9.112
2023-03-14T01:30:26.049Z,9.109
2023-03-14T01:31:25.790Z,9.114
2023-03-14T01:32:26.787Z,9.146
2023-03-14T01:33:25.673Z,9.096
2023-03-14T01:34:26.289Z,9.055
2023-03-14T01:35:26.306Z,9.074
2023-03-14T01:36:26.066Z,9.071
2023-03-14T01:37:26.291Z,9.058
2023-03-14T01:38:25.774Z,9.074
2023-03-14T01:39:26.457Z,9.101
2023-03-14T01:40:26.155Z,9.037
2023-03-14T01:41:25.992Z,9.104
2023-03-14T01:42:26.620Z,9.079
2023-03-14T01:43:26.221Z,9.128
2023-03-14T01:44:25.844Z,9.063
2023-03-14T01:45:26.348Z,9.101
2023-03-14T01:46:26.157Z,9.074
2023-03-14T01:47:25.727Z,9.029
2023-03-14T01:48:26.301Z,9.007
2023-03-14T01:49:25.793Z,9.063
2023-03-14T01:50:26.367Z,9.066
2023-03-14T01:51:25.878Z,9.013
2023-03-14T01:52:26.392Z,8.981
2023-03-14T01:53:25.889Z,9.021
2023-03-14T01:54:26.465Z,8.975
2023-03-14T01:55:25.956Z,8.978
2023-03-14T01:56:26.571Z,8.997
2023-03-14T01:57:26.141Z,8.989
2023-03-14T01:58:25.722Z,9.037
2023-03-14T01:59:26.280Z,9.058
2023-03-14T02:00:25.875Z,9.063
2023-03-14T02:01:26.573Z,9.007
2023-03-14T02:02:26.268Z,8.999
2023-03-14T02:03:25.964Z,8.994
2023-03-14T02:04:25.710Z,8.994
2023-03-14T02:05:26.349Z,8.951
2023-03-14T02:06:25.867Z,8.989
2023-03-14T02:07:25.728Z,8.991
2023-03-14T02:08:26.278Z,8.965
2023-03-14T02:09:25.850Z,8.935
2023-03-14T02:10:26.366Z,8.959
2023-03-14T02:11:25.997Z,8.938
2023-03-14T02:12:25.668Z,8.943
2023-03-14T02:13:26.296Z,8.951
2023-03-14T02:14:25.895Z,8.965
2023-03-14T02:15:26.425Z,8.898
2023-03-14T02:16:26.037Z,8.911
2023-03-14T02:17:25.817Z,8.957
2023-03-14T02:18:26.341Z,8.957
2023-03-14T02:19:25.892Z,8.957
2023-03-14T02:20:26.594Z,8.935
2023-03-14T02:21:26.129Z,8.901
2023-03-14T02:22:25.718Z,8.898
2023-03-14T02:23:26.277Z,8.925
2023-03-14T02:24:25.839Z,8.909
2023-03-14T02:25:26.466Z,8.866
2023-03-14T02:26:26.060Z,8.877
2023-03-14T02:27:26.549Z,8.836
2023-03-14T02:28:26.179Z,8.853
2023-03-14T02:29:25.696Z,8.770
2023-03-14T02:30:26.341Z,8.804
2023-03-14T02:31:25.987Z,8.853
2023-03-14T02:32:25.814Z,8.799
2023-03-14T02:33:25.641Z,8.845
2023-03-14T02:34:26.220Z,8.836
2023-03-14T02:35:25.805Z,8.845
2023-03-14T02:36:26.485Z,8.836
2023-03-14T02:37:26.088Z,8.818
2023-03-14T02:38:25.657Z,8.850
2023-03-14T02:39:26.224Z,8.871
2023-03-14T02:40:25.949Z,8.903
2023-03-14T02:41:26.611Z,8.895
2023-03-14T02:42:26.169Z,8.898
2023-03-14T02:43:25.695Z,8.839
2023-03-14T02:44:26.265Z,8.812
2023-03-14T02:45:25.732Z,8.802
2023-03-14T02:46:26.406Z,8.855
2023-03-14T02:47:26.020Z,8.863
2023-03-14T02:48:25.673Z,8.826
2023-03-14T02:49:26.255Z,8.786
2023-03-14T02:50:25.924Z,8.815
2023-03-14T02:51:26.505Z,8.804
2023-03-14T02:52:26.112Z,8.783
2023-03-14T02:53:25.630Z,8.743
2023-03-14T02:54:26.094Z,8.724
2023-03-14T02:55:25.637Z,8.738
2023-03-14T02:56:26.232Z,8.719
2023-03-14T02:57:25.680Z,8.722
2023-03-14T02:58:26.297Z,8.759
2023-03-14T02:59:25.785Z,8.722
2023-03-14T03:00:26.454Z,8.727
2023-03-14T03:01:26.116Z,8.724
2023-03-14T03:02:25.938Z,8.732
2023-03-14T03:03:26.516Z,8.722
2023-03-14T03:04:26.252Z,8.722
2023-03-14T03:05:25.927Z,8.716
2023-03-14T03:06:26.438Z,8.690
2023-03-14T03:07:25.963Z,8.724
2023-03-14T03:08:26.699Z,8.735
2023-03-14T03:09:26.213Z,8.732
2023-03-14T03:10:25.768Z,8.778
2023-03-14T03:11:26.302Z,8.703
2023-03-14T03:12:25.792Z,8.650
2023-03-14T03:13:26.303Z,8.636
2023-03-14T03:14:25.916Z,8.676
2023-03-14T03:15:26.470Z,8.577
2023-03-14T03:16:26.146Z,8.650
2023-03-14T03:17:25.908Z,8.610
2023-03-14T03:18:26.757Z,8.610
2023-03-14T03:19:26.294Z,8.604
2023-03-14T03:20:25.889Z,8.620
2023-03-14T03:21:26.414Z,8.655
2023-03-14T03:22:26.003Z,8.658
2023-03-14T03:23:26.570Z,8.658
2023-03-14T03:24:26.101Z,8.770
2023-03-14T03:25:25.660Z,8.679
2023-03-14T03:26:26.189Z,8.679
2023-03-14T03:27:25.699Z,8.698
2023-03-14T03:28:26.321Z,8.719
2023-03-14T03:29:25.876Z,8.663
2023-03-14T03:30:26.448Z,8.660
2023-03-14T03:31:26.384Z,8.623
2023-03-14T03:32:25.987Z,8.639
2023-03-14T03:33:25.632Z,8.626
2023-03-14T03:34:26.136Z,8.650
2023-03-14T03:35:25.835Z,8.631
2023-03-14T03:36:26.624Z,8.666
2023-03-14T03:37:26.250Z,8.658
2023-03-14T03:38:25.844Z,8.684
2023-03-14T03:39:26.372Z,8.658
2023-03-14T03:40:26.324Z,8.647
2023-03-14T03:41:25.980Z,8.628
2023-03-14T03:42:26.614Z,8.599
2023-03-14T03:43:26.216Z,8.615
2023-03-14T03:44:25.868Z,8.674
2023-03-14T03:45:26.467Z,8.583
2023-03-14T03:46:26.223Z,8.588
2023-03-14T03:47:25.952Z,8.612
2023-03-14T03:48:26.477Z,8.569
2023-03-14T03:49:26.132Z,8.551
2023-03-14T03:50:25.712Z,8.596
2023-03-14T03:51:26.220Z,8.628
2023-03-14T03:52:25.845Z,8.612
2023-03-14T03:53:33.068Z,8.593
2023-03-14T03:54:26.077Z,8.634
2023-03-14T03:55:26.605Z,8.610
2023-03-14T03:56:26.360Z,8.660
2023-03-14T03:57:25.889Z,8.615
2023-03-14T03:58:26.569Z,8.626
2023-03-14T03:59:26.209Z,8.588
2023-03-14T04:00:25.993Z,8.620
2023-03-14T04:01:26.877Z,8.612
2023-03-14T04:02:26.332Z,8.577
2023-03-14T04:03:25.872Z,8.524
2023-03-14T04:04:26.317Z,8.540
2023-03-14T04:05:26.308Z,8.497
2023-03-14T04:06:26.070Z,8.513
2023-03-14T04:07:25.941Z,8.543
2023-03-14T04:08:26.391Z,8.473
2023-03-14T04:09:26.020Z,8.481
2023-03-14T04:10:26.523Z,8.484
2023-03-14T04:11:26.120Z,8.484
2023-03-14T04:12:25.745Z,8.495
2023-03-14T04:13:26.245Z,8.487
2023-03-14T04:14:25.848Z,8.463
2023-03-14T04:15:25.642Z,8.492
2023-03-14T04:16:29.839Z,8.505
2023-03-14T04:17:29.322Z,8.497
2023-03-14T04:18:29.658Z,8.492
2023-03-14T04:19:25.747Z,8.551
2023-03-14T04:20:26.446Z,8.545
2023-03-14T04:21:26.205Z,8.495
2023-03-14T04:22:25.829Z,8.513
2023-03-14T04:23:26.096Z,8.471
2023-03-14T04:24:25.625Z,8.481
2023-03-14T04:25:26.226Z,8.401
2023-03-14T04:26:25.757Z,8.417
2023-03-14T04:27:26.307Z,8.452
2023-03-14T04:28:25.868Z,8.473
2023-03-14T04:29:26.344Z,8.471
2023-03-14T04:30:25.932Z,8.484
2023-03-14T04:31:26.517Z,8.473
2023-03-14T04:32:26.375Z,8.484
2023-03-14T04:33:25.991Z,8.481
2023-03-14T04:34:26.380Z,8.468
2023-03-14T04:35:25.877Z,8.444
2023-03-14T04:36:26.634Z,8.447
2023-03-14T04:37:25.848Z,8.455
2023-03-14T04:38:26.469Z,8.401
2023-03-14T04:39:26.012Z,8.407
2023-03-14T04:40:26.758Z,8.428
2023-03-14T04:41:26.316Z,8.441
2023-03-14T04:42:25.877Z,8.380
2023-03-14T04:43:25.586Z,8.401
2023-03-14T04:44:26.143Z,8.401
2023-03-14T04:45:26.037Z,8.385
2023-03-14T04:46:26.664Z,8.375
2023-03-14T04:47:26.556Z,8.334
2023-03-14T04:48:26.121Z,8.356
2023-03-14T04:49:25.641Z,8.342
2023-03-14T04:50:26.173Z,8.334
2023-03-14T04:51:25.673Z,8.361
2023-03-14T04:52:26.205Z,8.356
2023-03-14T04:53:25.707Z,8.305
2023-03-14T04:54:26.198Z,8.308
2023-03-14T04:55:25.841Z,8.321
2023-03-14T04:56:26.527Z,8.244
2023-03-14T04:57:26.035Z,8.268
2023-03-14T04:58:25.705Z,8.278
2023-03-14T04:59:26.205Z,8.278
2023-03-14T05:00:25.720Z,8.289
2023-03-14T05:01:26.441Z,8.281
2023-03-14T05:02:26.201Z,8.262
2023-03-14T05:03:25.976Z,8.278
2023-03-14T05:04:26.494Z,8.252
2023-03-14T05:05:25.996Z,8.316
2023-03-14T05:06:25.656Z,8.257
2023-03-14T05:07:26.198Z,8.270
2023-03-14T05:08:25.843Z,8.233
2023-03-14T05:09:26.331Z,8.289
2023-03-14T05:10:25.936Z,8.270
2023-03-14T05:11:26.481Z,8.270
2023-03-14T05:12:26.025Z,8.190
2023-03-14T05:13:25.639Z,8.177
2023-03-14T05:14:26.256Z,8.142
2023-03-14T05:15:25.894Z,8.214
2023-03-14T05:16:26.870Z,8.180
2023-03-14T05:17:26.610Z,8.118
2023-03-14T05:18:26.261Z,8.129
2023-03-14T05:19:25.759Z,8.188
2023-03-14T05:20:26.331Z,8.166
2023-03-14T05:21:26.089Z,8.212
2023-03-14T05:22:25.793Z,8.161
2023-03-14T05:23:26.521Z,8.214
2023-03-14T05:24:26.034Z,8.188
2023-03-14T05:25:26.642Z,8.161
2023-03-14T05:26:26.448Z,8.124
2023-03-14T05:27:26.062Z,8.105
2023-03-14T05:28:25.604Z,8.078
2023-03-14T05:29:26.127Z,8.033
2023-03-14T05:30:25.705Z,8.110
2023-03-14T05:31:26.400Z,8.062
2023-03-14T05:32:26.305Z,8.099
2023-03-14T05:33:26.142Z,8.070
2023-03-14T05:34:25.684Z,8.035
2023-03-14T05:35:26.640Z,8.059
2023-03-14T05:36:26.296Z,8.089
2023-03-14T05:37:26.396Z,8.070
2023-03-14T05:38:25.929Z,8.038
2023-03-14T05:39:26.592Z,8.091
2023-03-14T05:40:26.291Z,8.086
2023-03-14T05:41:26.000Z,8.099
2023-03-14T05:42:26.615Z,8.022
2023-03-14T05:43:26.122Z,8.113
2023-03-14T05:44:25.947Z,8.070
2023-03-14T05:45:26.489Z,8.011
2023-03-14T05:46:26.255Z,8.038
2023-03-14T05:47:25.769Z,8.025
2023-03-14T05:48:26.308Z,7.998
2023-03-14T05:49:25.933Z,7.995
2023-03-14T05:50:26.497Z,7.945
2023-03-14T05:51:26.019Z,7.955
2023-03-14T05:52:26.541Z,7.977
2023-03-14T05:53:26.121Z,7.926
2023-03-14T05:54:26.535Z,7.966
2023-03-14T05:55:26.104Z,7.963
2023-03-14T05:56:25.661Z,7.902
2023-03-14T05:57:26.409Z,7.947
2023-03-14T05:58:25.906Z,7.899
2023-03-14T05:59:26.440Z,7.947
2023-03-14T06:00:25.967Z,7.958
2023-03-14T06:01:26.595Z,7.971
2023-03-14T06:02:26.383Z,7.926
2023-03-14T06:03:26.110Z,7.899
2023-03-14T06:04:25.928Z,7.942
2023-03-14T06:05:25.682Z,7.963
2023-03-14T06:06:26.269Z,7.947
2023-03-14T06:07:25.935Z,7.971
2023-03-14T06:08:26.568Z,7.982
2023-03-14T06:09:26.179Z,8.011
2023-03-14T06:10:25.885Z,8.078
2023-03-14T06:11:26.437Z,8.083
2023-03-14T06:12:26.306Z,8.099
2023-03-14T06:13:25.867Z,8.086
2023-03-14T06:14:26.216Z,8.142
2023-03-14T06:15:25.525Z,8.177
2023-03-14T06:16:26.080Z,8.196
2023-03-14T06:17:25.774Z,8.177
2023-03-14T06:18:26.106Z,8.188
2023-03-14T06:19:25.655Z,8.129
2023-03-14T06:20:25.989Z,8.150
2023-03-14T06:21:26.322Z,8.201
2023-03-14T06:22:25.730Z,8.166
2023-03-14T06:23:26.143Z,8.225
2023-03-14T06:24:25.484Z,8.305
2023-03-14T06:25:25.880Z,8.321
2023-03-14T06:26:26.384Z,8.353
2023-03-14T06:27:25.803Z,8.324
2023-03-14T06:28:26.368Z,8.367
2023-03-14T06:29:25.692Z,8.391
2023-03-14T06:30:26.056Z,8.399
2023-03-14T06:31:26.412Z,8.367
2023-03-14T06:32:25.749Z,8.399
2023-03-14T06:33:26.423Z,8.385
2023-03-14T06:34:25.719Z,8.447
2023-03-14T06:35:26.134Z,8.460
2023-03-14T06:36:25.620Z,8.489
2023-03-14T06:37:25.897Z,8.503
2023-03-14T06:38:26.380Z,8.535
2023-03-14T06:39:25.789Z,8.524
2023-03-14T06:40:26.374Z,8.540
2023-03-14T06:41:25.696Z,8.612
2023-03-14T06:42:26.247Z,8.599
2023-03-14T06:43:25.549Z,8.620
2023-03-14T06:44:25.843Z,8.679
2023-03-14T06:45:26.340Z,8.658
2023-03-14T06:46:26.031Z,8.706
2023-03-14T06:47:25.638Z,8.746
2023-03-14T06:48:26.144Z,8.762
2023-03-14T06:49:25.727Z,8.770
2023-03-14T06:50:26.134Z,8.783
2023-03-14T06:51:25.605Z,8.746
2023-03-14T06:52:25.894Z,8.778
2023-03-14T06:53:26.390Z,8.812
2023-03-14T06:54:25.791Z,8.778
2023-03-14T06:55:26.205Z,8.834
2023-03-14T06:56:25.713Z,8.810
2023-03-14T06:57:26.069Z,8.802
2023-03-14T06:58:26.532Z,8.845
2023-03-14T06:59:25.739Z,8.909
2023-03-14T07:00:26.291Z,8.882
2023-03-14T07:01:25.970Z,8.895
2023-03-14T07:02:36.146Z,8.909
2023-03-14T07:03:26.048Z,8.919
2023-03-14T07:04:26.375Z,8.914
2023-03-14T07:05:25.893Z,8.951
2023-03-14T07:06:26.162Z,8.925
2023-03-14T07:07:25.617Z,8.981
2023-03-14T07:08:25.980Z,8.954
2023-03-14T07:09:26.237Z,8.967
2023-03-14T07:10:25.491Z,9.007
2023-03-14T07:11:25.878Z,8.975
2023-03-14T07:12:26.293Z,9.050
2023-03-14T07:13:25.685Z,9.042
2023-03-14T07:14:26.136Z,9.039
2023-03-14T07:15:31.397Z,9.101
2023-03-14T07:16:26.369Z,9.082
2023-03-14T07:17:25.867Z,9.101
2023-03-14T07:18:26.477Z,9.106
2023-03-14T07:19:25.807Z,9.079
2023-03-14T07:20:26.198Z,9.085
2023-03-14T07:21:25.687Z,9.114
2023-03-14T07:22:26.228Z,9.112
2023-03-14T07:23:26.498Z,9.181
2023-03-14T07:24:25.979Z,9.149
2023-03-14T07:25:26.408Z,9.202
2023-03-14T07:26:25.673Z,9.229
2023-03-14T07:27:28.855Z,9.280
2023-03-14T07:28:26.325Z,9.280
2023-03-14T07:29:25.708Z,9.288
2023-03-14T07:30:26.136Z,9.355
2023-03-14T07:31:26.004Z,9.381
2023-03-14T07:32:26.429Z,9.424
2023-03-14T07:33:28.952Z,9.469
2023-03-14T07:34:26.321Z,9.477
2023-03-14T07:35:25.628Z,9.517
2023-03-14T07:36:26.142Z,9.525
2023-03-14T07:37:26.517Z,9.533
2023-03-14T07:38:25.918Z,9.528
2023-03-14T07:39:26.229Z,9.539
2023-03-14T07:40:25.858Z,9.565
2023-03-14T07:41:26.435Z,9.579
2023-03-14T07:42:25.862Z,9.603
2023-03-14T07:43:26.378Z,9.603
2023-03-14T07:44:25.973Z,9.608
2023-03-14T07:45:28.296Z,9.704
2023-03-14T07:46:25.989Z,9.704
2023-03-14T07:47:26.421Z,9.760
2023-03-14T07:48:25.834Z,9.857
2023-03-14T07:49:26.241Z,9.870
2023-03-14T07:50:25.692Z,9.873
2023-03-14T07:51:26.168Z,9.953
2023-03-14T07:52:25.766Z,10.076
2023-03-14T07:53:26.396Z,10.100
2023-03-14T07:54:25.929Z,10.348
2023-03-14T07:55:26.461Z,10.687
2023-03-14T07:56:25.976Z,10.882
2023-03-14T07:57:26.503Z,11.029
2023-03-14T07:58:25.807Z,11.045
2023-03-14T07:59:26.118Z,11.007
2023-03-14T08:00:26.534Z,10.810
2023-03-14T08:01:26.231Z,10.780
2023-03-14T08:02:25.800Z,10.869
2023-03-14T08:03:26.440Z,11.098
2023-03-14T08:04:26.183Z,10.965
2023-03-14T08:05:25.684Z,10.965
2023-03-14T08:06:25.872Z,10.810
2023-03-14T08:07:26.277Z,10.930
2023-03-14T08:08:25.539Z,10.989
2023-03-14T08:09:26.137Z,10.933
2023-03-14T08:10:26.616Z,11.005
2023-03-14T08:11:26.085Z,10.962
2023-03-14T08:12:25.539Z,10.962
2023-03-14T08:13:26.202Z,10.933
2023-03-14T08:14:25.632Z,10.813
2023-03-14T08:15:26.059Z,10.815
2023-03-14T08:16:26.004Z,10.829
2023-03-14T08:17:28.495Z,10.799
2023-03-14T08:18:26.377Z,10.853
2023-03-14T08:19:25.861Z,10.805
2023-03-14T08:20:26.534Z,10.794
2023-03-14T08:21:26.142Z,10.925
2023-03-14T08:22:25.645Z,10.847
2023-03-14T08:23:26.165Z,10.858
2023-03-14T08:24:25.610Z,11.018
2023-03-14T08:25:26.089Z,10.810
2023-03-14T08:26:26.241Z,10.815
2023-03-14T08:27:28.744Z,10.839
2023-03-14T08:28:26.297Z,10.983
2023-03-14T08:29:26.129Z,10.895
2023-03-14T08:30:25.757Z,10.909
2023-03-14T08:31:26.064Z,10.780
2023-03-14T08:32:26.031Z,10.893
2023-03-14T08:33:26.064Z,11.002
2023-03-14T08:34:25.752Z,11.080
2023-03-14T08:35:26.716Z,11.210
2023-03-14T08:36:26.652Z,11.315
2023-03-14T08:37:31.256Z,11.440
2023-03-14T08:38:25.945Z,11.648
2023-03-14T08:39:27.009Z,11.504
2023-03-14T08:40:26.324Z,11.531
2023-03-14T08:41:26.034Z,11.614
2023-03-14T08:42:25.636Z,11.558
2023-03-14T08:43:26.542Z,11.606
2023-03-14T08:44:26.318Z,11.477
2023-03-14T08:45:26.359Z,11.606
2023-03-14T08:46:26.063Z,11.467
2023-03-14T08:47:26.096Z,11.507
2023-03-14T08:48:25.837Z,11.736
2023-03-14T08:49:25.757Z,11.883
2023-03-14T08:50:25.754Z,11.886
2023-03-14T08:51:26.459Z,11.710
2023-03-14T08:52:26.108Z,11.870
2023-03-14T08:53:26.049Z,11.830
2023-03-14T08:54:25.630Z,11.881
2023-03-14T08:55:26.418Z,11.777
2023-03-14T08:56:26.172Z,11.678
2023-03-14T08:57:26.077Z,11.835
2023-03-14T08:58:25.858Z,12.012
2023-03-14T08:59:26.440Z,12.108
2023-03-14T09:00:26.088Z,12.252
2023-03-14T09:01:25.746Z,12.308
2023-03-14T09:02:26.423Z,12.359
2023-03-14T09:03:26.348Z,12.449
2023-03-14T09:04:26.342Z,12.690
2023-03-14T09:05:26.309Z,12.674
2023-03-14T09:06:26.095Z,12.791
2023-03-14T09:07:25.997Z,12.511
2023-03-14T09:08:25.950Z,12.116
2023-03-14T09:09:26.568Z,12.214
2023-03-14T09:10:26.181Z,12.372
2023-03-14T09:11:25.745Z,12.484
2023-03-14T09:12:26.424Z,12.436
2023-03-14T09:13:26.049Z,12.407
2023-03-14T09:14:25.705Z,12.094
2023-03-14T09:15:26.515Z,12.129
2023-03-14T09:16:26.375Z,12.126
2023-03-14T09:17:26.301Z,12.028
2023-03-14T09:18:26.092Z,12.012
2023-03-14T09:19:25.876Z,11.947
2023-03-14T09:20:26.653Z,11.905
2023-03-14T09:21:26.493Z,11.806
2023-03-14T09:22:26.049Z,11.600
2023-03-14T09:23:26.812Z,11.787
2023-03-14T09:24:26.565Z,11.734
2023-03-14T09:25:26.421Z,11.723
2023-03-14T09:26:26.040Z,11.568
2023-03-14T09:27:25.640Z,11.769
2023-03-14T09:28:26.224Z,11.811
2023-03-14T09:29:25.868Z,11.734
2023-03-14T09:30:26.541Z,11.902
2023-03-14T09:31:26.198Z,11.843
2023-03-14T09:32:26.193Z,11.918
2023-03-14T09:33:26.096Z,11.899
2023-03-14T09:34:25.736Z,11.934
2023-03-14T09:35:26.632Z,11.878
2023-03-14T09:36:26.368Z,11.950
2023-03-14T09:37:26.240Z,11.963
2023-03-14T09:38:25.940Z,11.899
2023-03-14T09:39:26.776Z,11.969
2023-03-14T09:40:28.000Z,11.937
2023-03-14T09:41:25.769Z,12.094
2023-03-14T09:42:26.513Z,12.092
2023-03-14T09:43:26.476Z,12.081
2023-03-14T09:44:26.389Z,11.931
2023-03-14T09:45:26.026Z,11.894
2023-03-14T09:46:26.086Z,11.899
2023-03-14T09:47:25.849Z,11.961
2023-03-14T09:49:31.924Z,11.811
2023-03-14T09:50:30.523Z,11.734
2023-03-14T09:51:30.325Z,11.699
2023-03-14T09:52:29.953Z,11.731
2023-03-14T09:53:29.827Z,11.699
2023-03-14T09:54:30.433Z,11.643
2023-03-14T09:55:30.102Z,11.656
2023-03-14T09:56:29.732Z,11.739
2023-03-14T09:57:30.367Z,11.710
2023-03-14T09:58:30.108Z,11.670
2023-03-14T09:59:29.661Z,11.574
2023-03-14T10:00:30.364Z,11.675
2023-03-14T10:01:32.330Z,11.798
2023-03-14T10:02:29.646Z,11.699
2023-03-14T10:03:30.330Z,11.734
2023-03-14T10:04:30.034Z,11.771
2023-03-14T10:05:29.788Z,11.873
2023-03-14T10:06:30.421Z,11.835
2023-03-14T10:07:30.089Z,11.686
2023-03-14T10:08:29.791Z,11.646
2023-03-14T10:09:30.443Z,11.785
2023-03-14T10:10:30.157Z,11.787
2023-03-14T10:11:29.802Z,11.710
2023-03-14T10:12:30.713Z,11.683
2023-03-14T10:13:29.921Z,11.630
2023-03-14T10:14:30.597Z,11.499
2023-03-14T10:15:30.348Z,11.507
2023-03-14T10:16:30.010Z,11.531
2023-03-14T10:17:29.718Z,11.453
2023-03-14T10:18:30.385Z,11.558
2023-03-14T10:19:29.946Z,11.606
2023-03-14T10:20:29.757Z,11.558
2023-03-14T10:21:30.476Z,11.563
2023-03-14T10:22:30.290Z,11.640
2023-03-14T10:23:30.176Z,11.750
2023-03-14T10:24:29.943Z,11.691
2023-03-14T10:25:30.655Z,11.680
2023-03-14T10:26:30.417Z,11.723
2023-03-14T10:27:31.099Z,11.761
2023-03-14T10:28:29.870Z,11.763
2023-03-14T10:29:30.468Z,11.710
2023-03-14T10:30:30.147Z,11.846
2023-03-14T10:31:30.093Z,11.907
2023-03-14T10:32:29.830Z,11.811
2023-03-14T10:33:29.733Z,11.955
2023-03-14T10:34:30.317Z,12.113
2023-03-14T10:35:29.963Z,12.292
2023-03-14T10:36:32.790Z,12.279
2023-03-14T10:37:30.472Z,12.452
2023-03-14T10:38:30.179Z,12.578
2023-03-14T10:39:30.100Z,12.572
2023-03-14T10:40:29.808Z,12.690
2023-03-14T10:41:30.425Z,12.679
2023-03-14T10:42:30.161Z,12.580
2023-03-14T10:43:29.981Z,12.567
2023-03-14T10:44:30.652Z,12.765
2023-03-14T10:45:30.393Z,12.930
2023-03-14T10:46:30.706Z,12.604
2023-03-14T10:47:30.405Z,12.700
2023-03-14T10:48:30.270Z,12.895
2023-03-14T10:49:29.901Z,12.879
2023-03-14T10:50:30.637Z,13.032
2023-03-14T10:51:30.341Z,12.911
2023-03-14T10:52:45.579Z,12.976
2023-03-14T10:54:35.386Z,13.243
2023-03-14T10:55:35.163Z,13.021
2023-03-14T10:56:34.931Z,13.029
2023-03-14T10:57:34.711Z,12.722
2023-03-14T10:58:35.356Z,12.676
2023-03-14T10:59:35.058Z,12.861
2023-03-14T11:00:34.794Z,12.914
2023-03-14T11:01:35.772Z,13.042
2023-03-14T11:02:34.800Z,13.149
2023-03-14T11:03:35.519Z,13.253
2023-03-14T11:04:35.236Z,13.042
2023-03-14T11:05:35.268Z,13.037
2023-03-14T11:06:34.824Z,12.765
2023-03-14T11:07:35.672Z,12.914
2023-03-14T11:08:35.316Z,13.037
2023-03-14T11:09:34.885Z,13.371
2023-03-14T11:10:35.557Z,13.232
2023-03-14T11:11:35.192Z,13.069
2023-03-14T11:12:34.885Z,13.216
2023-03-14T11:13:35.514Z,13.237
2023-03-14T11:14:35.134Z,13.296
2023-03-14T11:15:34.753Z,13.064
2023-03-14T11:16:35.005Z,13.275
2023-03-14T11:17:34.798Z,13.437
2023-03-14T11:18:35.631Z,13.397
2023-03-14T11:19:35.701Z,13.437
2023-03-14T11:20:35.049Z,13.395
2023-03-14T11:21:34.657Z,13.272
2023-03-14T11:22:35.480Z,13.325
2023-03-14T11:23:35.064Z,13.344
2023-03-14T11:24:34.797Z,13.117
2023-03-14T11:25:35.363Z,12.957
2023-03-14T11:26:34.911Z,12.893
2023-03-14T11:27:35.534Z,12.925
2023-03-14T11:28:35.315Z,13.069
2023-03-14T11:29:34.983Z,12.821
2023-03-14T11:30:34.887Z,12.922
2023-03-14T11:31:35.696Z,12.984
2023-03-14T11:32:35.450Z,12.847
2023-03-14T11:33:35.088Z,12.890
2023-03-14T11:34:34.878Z,13.072
2023-03-14T11:35:35.690Z,13.000
2023-03-14T11:36:34.962Z,13.194
2023-03-14T11:37:35.252Z,12.855
2023-03-14T11:38:35.110Z,12.831
2023-03-14T11:39:35.757Z,13.154
2023-03-14T11:40:34.776Z,13.379
2023-03-14T11:41:35.436Z,13.219
2023-03-14T11:42:34.748Z,13.176
2023-03-14T11:43:35.322Z,13.280
2023-03-14T11:44:34.969Z,13.325
2023-03-14T11:45:36.041Z,13.368
2023-03-14T11:46:34.838Z,13.475
2023-03-14T11:47:34.800Z,13.336
2023-03-14T11:48:35.709Z,13.448
2023-03-14T11:49:35.404Z,13.237
2023-03-14T11:50:35.194Z,13.162
2023-03-14T11:51:35.146Z,13.261
2023-03-14T11:52:34.938Z,13.248
2023-03-14T11:53:35.523Z,13.109
2023-03-14T11:54:35.371Z,12.917
2023-03-14T11:55:35.430Z,12.978
2023-03-14T11:56:35.257Z,12.954
2023-03-14T11:57:35.106Z,13.042
2023-03-14T11:58:37.656Z,13.146
2023-03-14T11:59:35.251Z,13.160
2023-03-14T12:00:34.984Z,13.277
2023-03-14T12:01:35.679Z,13.005
2023-03-14T12:02:35.407Z,12.967
2023-03-14T12:03:35.536Z,13.013
2023-03-14T12:04:35.352Z,13.192
2023-03-14T12:05:35.169Z,13.678
2023-03-14T12:06:34.872Z,13.651
2023-03-14T12:07:35.541Z,13.865
2023-03-14T12:08:35.249Z,13.956
2023-03-14T12:09:34.940Z,13.948
2023-03-14T12:10:35.510Z,13.985
2023-03-14T12:11:35.146Z,14.062
2023-03-14T12:12:34.830Z,13.921
2023-03-14T12:13:35.424Z,13.440
2023-03-14T12:14:35.022Z,13.237
2023-03-14T12:15:34.705Z,13.016
2023-03-14T12:16:35.450Z,12.943
2023-03-14T12:17:34.781Z,12.978
2023-03-14T12:18:35.409Z,13.018
2023-03-14T12:19:35.070Z,12.978
2023-03-14T12:20:34.832Z,13.069
2023-03-14T12:21:35.492Z,13.069
2023-03-14T12:22:35.102Z,13.080
2023-03-14T12:23:34.703Z,12.976
2023-03-14T12:24:35.276Z,13.010
2023-03-14T12:25:34.907Z,13.277
2023-03-14T12:26:35.620Z,13.277
2023-03-14T12:27:35.159Z,13.261
2023-03-14T12:28:34.780Z,13.357
2023-03-14T12:29:35.531Z,13.584
2023-03-14T12:30:35.228Z,13.558
2023-03-14T12:31:35.066Z,13.464
2023-03-14T12:32:34.944Z,13.467
2023-03-14T12:33:34.816Z,13.504
2023-03-14T12:34:35.421Z,13.467
2023-03-14T12:35:35.172Z,13.560
2023-03-14T12:36:35.141Z,13.440
2023-03-14T12:37:34.741Z,13.331
2023-03-14T12:38:35.301Z,13.157
2023-03-14T12:39:34.989Z,13.219
2023-03-14T12:40:34.704Z,13.208
2023-03-14T12:41:35.550Z,13.080
2023-03-14T12:42:44.373Z,13.192
2023-03-14T12:43:35.230Z,13.237
2023-03-14T12:44:34.847Z,13.160
2023-03-14T12:45:35.734Z,13.026